Time;durP1;ratioP1;P1;durP2;ratioP2;P2;SDS_P1;SDS_P2;PMS_P1;PMS_P2;Temp;Humidity;BMP_temperature;BMP_pressure;BME280_temperature;BME280_humidity;BME280_pressure;Samples;Min_cycle;Max_cycle;Signal;HPM_P1;HPM_P2
2021/03/09 00:01:46;;;;;;;8.05;5.30;;;0.20;99.90;;;;;;5039438;28;20223;-80
2021/03/09 00:04:12;;;;;;;8.88;4.38;;;0.20;99.90;;;;;;5039071;28;20211;-80
2021/03/09 00:06:38;;;;;;;7.13;4.63;;;0.20;99.90;;;;;;5038480;28;20208;-77
2021/03/09 00:09:05;;;;;;;6.15;4.05;;;0.20;99.90;;;;;;5044172;28;20219;-77
2021/03/09 00:11:31;;;;;;;11.75;5.40;;;0.20;99.90;;;;;;5045941;28;20228;-78
2021/03/09 00:13:58;;;;;;;7.35;4.72;;;0.20;99.90;;;;;;5038464;28;20204;-79
2021/03/09 00:16:24;;;;;;;4.38;3.97;;;0.20;99.90;;;;;;5041738;28;20203;-81
2021/03/09 00:18:50;;;;;;;5.25;4.60;;;0.20;99.90;;;;;;5040883;28;20208;-80
2021/03/09 00:21:16;;;;;;;5.82;4.43;;;0.20;99.90;;;;;;5064195;22;20373;-85
2021/03/09 00:23:42;;;;;;;7.72;4.88;;;0.20;99.90;;;;;;5041335;28;20241;-86
2021/03/09 00:26:09;;;;;;;5.78;4.70;;;0.10;99.90;;;;;;5039512;28;20199;-85
2021/03/09 00:28:35;;;;;;;4.90;3.80;;;0.10;99.90;;;;;;5039868;28;20208;-86
2021/03/09 00:31:02;;;;;;;4.80;4.32;;;0.10;99.90;;;;;;5038265;28;20234;-84
2021/03/09 00:33:28;;;;;;;6.45;4.32;;;0.10;99.90;;;;;;5039546;28;20207;-85
2021/03/09 00:35:54;;;;;;;4.13;3.72;;;0.10;99.90;;;;;;5039090;28;20230;-85
2021/03/09 00:38:20;;;;;;;4.10;3.75;;;0.00;99.90;;;;;;5038506;28;20226;-85
2021/03/09 00:40:46;;;;;;;7.72;3.40;;;0.30;99.90;;;;;;5038576;28;20199;-84
2021/03/09 00:43:12;;;;;;;7.43;4.30;;;0.00;99.90;;;;;;5039642;28;20200;-85
2021/03/09 00:45:39;;;;;;;7.22;4.60;;;0.00;99.90;;;;;;5039096;28;20208;-85
2021/03/09 00:48:06;;;;;;;4.88;4.20;;;0.00;99.90;;;;;;5039369;28;20199;-85
2021/03/09 00:50:32;;;;;;;5.70;4.43;;;-0.20;99.90;;;;;;5038641;28;20710;-85
2021/03/09 00:52:59;;;;;;;5.20;4.63;;;-0.50;99.90;;;;;;5039690;28;20653;-86
2021/03/09 00:55:25;;;;;;;5.30;4.65;;;-0.30;99.90;;;;;;5039180;28;20199;-86
2021/03/09 00:57:56;;;;;;;5.47;4.15;;;-0.40;99.90;;;;;;5039701;28;20207;-85
2021/03/09 01:00:22;;;;;;;10.88;4.82;;;-0.30;99.90;;;;;;5039572;28;20286;-86
2021/03/09 01:02:48;;;;;;;8.27;4.45;;;-0.30;99.90;;;;;;5039395;28;20224;-84
2021/03/09 01:05:16;;;;;;;6.28;4.00;;;-0.30;99.90;;;;;;5038744;28;20210;-86
2021/03/09 01:07:42;;;;;;;4.78;4.25;;;-0.30;99.90;;;;;;5038956;28;20223;-85
2021/03/09 01:10:10;;;;;;;6.10;4.43;;;-0.30;99.90;;;;;;5039007;28;20219;-84
2021/03/09 01:12:36;;;;;;;5.25;4.75;;;-0.40;99.90;;;;;;5040592;28;20273;-85
2021/03/09 01:15:02;;;;;;;6.25;4.75;;;-0.30;99.90;;;;;;5040294;28;20215;-85
2021/03/09 01:17:28;;;;;;;6.57;4.88;;;-0.30;99.90;;;;;;5038490;28;20246;-85
2021/03/09 01:19:55;;;;;;;8.02;4.57;;;-0.30;99.90;;;;;;5039169;28;20619;-85
2021/03/09 01:22:21;;;;;;;8.73;5.18;;;-0.30;99.90;;;;;;5038059;28;20714;-85
2021/03/09 01:24:48;;;;;;;5.05;4.60;;;-0.30;99.90;;;;;;5038229;28;20203;-85
2021/03/09 01:27:14;;;;;;;8.85;4.43;;;-0.30;99.90;;;;;;5037915;28;20616;-85
2021/03/09 01:29:40;;;;;;;7.15;5.45;;;-0.30;99.90;;;;;;5038185;28;20281;-85
2021/03/09 01:32:07;;;;;;;8.73;4.00;;;-0.20;99.90;;;;;;5038389;28;20278;-86
2021/03/09 01:34:33;;;;;;;7.25;5.15;;;-0.30;99.90;;;;;;5037780;28;20211;-86
2021/03/09 01:36:59;;;;;;;9.23;4.93;;;-0.20;99.90;;;;;;5037975;28;20208;-86
2021/03/09 01:39:26;;;;;;;6.68;4.38;;;-0.30;99.90;;;;;;5037836;28;20224;-85
2021/03/09 01:41:52;;;;;;;5.22;4.57;;;-0.30;99.90;;;;;;5038473;28;20224;-84
2021/03/09 01:44:18;;;;;;;5.97;4.45;;;-0.30;99.90;;;;;;5039203;28;20214;-85
2021/03/09 01:46:46;;;;;;;9.90;5.95;;;-0.20;99.90;;;;;;5039681;28;20214;-86
2021/03/09 01:49:14;;;;;;;6.82;3.95;;;-0.30;99.90;;;;;;5038892;28;20204;-85
2021/03/09 01:51:40;;;;;;;5.75;3.65;;;-0.20;99.90;;;;;;5039166;28;20594;-85
2021/03/09 01:54:07;;;;;;;9.38;5.53;;;-0.20;99.90;;;;;;5037554;28;20295;-86
2021/03/09 01:56:34;;;;;;;10.05;5.10;;;-0.30;99.90;;;;;;5037348;28;20208;-85
2021/03/09 01:59:01;;;;;;;8.80;4.60;;;-0.30;99.90;;;;;;5036911;28;20231;-85
2021/03/09 02:01:28;;;;;;;10.80;5.40;;;-0.50;99.90;;;;;;5037944;28;20698;-86
2021/03/09 02:03:54;;;;;;;6.80;4.93;;;-0.40;99.90;;;;;;5038670;28;20199;-85
2021/03/09 02:06:20;;;;;;;5.88;4.50;;;-0.30;99.90;;;;;;5038432;28;20215;-85
2021/03/09 02:08:46;;;;;;;8.02;4.85;;;-0.40;99.90;;;;;;5037951;28;20208;-85
2021/03/09 02:11:34;;;;;;;11.23;5.05;;;-0.40;99.90;;;;;;5036917;28;20224;-86
2021/03/09 02:14:11;;;;;;;5.97;5.32;;;-0.50;99.90;;;;;;5037411;28;20238;-85
2021/03/09 02:16:45;;;;;;;8.68;4.55;;;-0.40;99.90;;;;;;5037225;28;20226;-85
2021/03/09 02:19:42;;;;;;;5.28;4.05;;;-0.10;99.90;;;;;;5037007;28;20184;-85
2021/03/09 02:22:45;;;;;;;7.82;4.95;;;-0.30;99.90;;;;;;5037287;28;20321;-85
2021/03/09 02:25:32;;;;;;;5.97;4.82;;;-0.30;99.90;;;;;;5035736;28;20686;-85
2021/03/09 02:28:12;;;;;;;5.75;5.00;;;-0.40;99.90;;;;;;5037396;28;20192;-86
2021/03/09 02:30:41;;;;;;;11.85;5.20;;;-0.40;99.90;;;;;;5037138;28;20203;-85
2021/03/09 02:33:13;;;;;;;6.43;4.10;;;-0.40;99.90;;;;;;5038379;28;20207;-85
2021/03/09 02:35:44;;;;;;;8.68;4.65;;;-0.40;99.90;;;;;;5037071;28;20250;-86
2021/03/09 02:38:11;;;;;;;7.05;4.90;;;-0.40;99.90;;;;;;5037231;28;20184;-85
2021/03/09 02:40:39;;;;;;;4.65;4.00;;;-0.30;99.90;;;;;;5038712;28;20196;-85
2021/03/09 02:43:09;;;;;;;6.30;4.85;;;-0.50;99.90;;;;;;5037819;28;20199;-85
2021/03/09 02:45:36;;;;;;;9.15;4.78;;;-0.50;99.90;;;;;;5037507;28;20634;-85
2021/03/09 02:48:06;;;;;;;7.35;4.88;;;-0.60;99.90;;;;;;5036880;28;20200;-86
2021/03/09 02:50:34;;;;;;;6.25;4.50;;;-0.80;99.90;;;;;;5040960;28;20224;-84
2021/03/09 02:53:06;;;;;;;6.60;4.07;;;-0.60;99.90;;;;;;5037149;28;20204;-85
2021/03/09 02:55:33;;;;;;;9.98;4.75;;;-0.60;99.90;;;;;;5038490;28;20273;-85
2021/03/09 02:58:01;;;;;;;8.10;5.28;;;-0.60;99.90;;;;;;5051691;28;20200;-84
2021/03/09 03:00:27;;;;;;;9.15;4.88;;;-0.60;99.90;;;;;;5052752;28;20275;-85
2021/03/09 03:02:54;;;;;;;6.63;4.68;;;-0.60;99.90;;;;;;5053332;28;20232;-84
2021/03/09 03:05:22;;;;;;;5.78;4.50;;;-0.70;99.90;;;;;;5051429;28;20199;-85
2021/03/09 03:07:48;;;;;;;9.68;5.63;;;-0.80;99.90;;;;;;5052668;28;20203;-84
2021/03/09 03:10:18;;;;;;;6.15;4.85;;;-0.80;99.90;;;;;;5052515;28;20641;-85
2021/03/09 03:12:45;;;;;;;6.15;4.03;;;-0.80;99.90;;;;;;5053594;28;20254;-85
2021/03/09 03:15:13;;;;;;;8.27;4.93;;;-0.90;99.90;;;;;;5050702;28;20226;-85
2021/03/09 03:17:41;;;;;;;7.05;4.20;;;-0.90;99.90;;;;;;5049687;28;20200;-85
2021/03/09 03:20:11;;;;;;;6.43;4.70;;;-0.80;99.90;;;;;;5051012;28;20200;-85
2021/03/09 03:22:39;;;;;;;6.63;4.47;;;-0.70;99.90;;;;;;5047979;28;20231;-85
2021/03/09 03:25:08;;;;;;;4.13;3.55;;;-0.70;99.90;;;;;;5047626;28;20218;-85
2021/03/09 03:27:37;;;;;;;6.93;4.55;;;-0.70;99.90;;;;;;5048923;28;20203;-85
2021/03/09 03:30:07;;;;;;;11.07;3.88;;;-0.70;99.90;;;;;;5042578;28;20257;-85
2021/03/09 03:32:34;;;;;;;9.25;5.00;;;-0.70;99.90;;;;;;5046226;28;20255;-85
2021/03/09 03:35:01;;;;;;;6.05;4.22;;;-0.70;99.90;;;;;;5053411;28;20580;-84
2021/03/09 03:37:27;;;;;;;6.43;4.85;;;-0.70;99.90;;;;;;5055100;28;20204;-84
2021/03/09 03:39:54;;;;;;;8.68;5.45;;;-0.70;99.90;;;;;;5055273;28;20368;-84
2021/03/09 03:42:20;;;;;;;8.35;4.90;;;-0.70;99.90;;;;;;5051195;28;20230;-85
2021/03/09 03:44:47;;;;;;;8.75;5.03;;;-0.70;99.90;;;;;;5051594;28;20204;-85
2021/03/09 03:47:13;;;;;;;6.13;4.82;;;-0.70;99.90;;;;;;5054673;28;20203;-85
2021/03/09 03:49:39;;;;;;;11.27;5.45;;;-0.70;99.90;;;;;;5053572;28;20203;-84
2021/03/09 03:52:12;;;;;;;8.10;4.90;;;-0.80;99.90;;;;;;5055118;28;20227;-85
2021/03/09 03:54:45;;;;;;;7.05;4.55;;;-0.70;99.90;;;;;;5043244;28;20258;-85
2021/03/09 03:57:18;;;;;;;7.43;5.18;;;-0.80;99.90;;;;;;5041849;28;20188;-85
2021/03/09 03:59:47;;;;;;;10.10;4.85;;;-0.80;99.90;;;;;;5040705;28;20191;-85
2021/03/09 04:02:16;;;;;;;7.13;4.80;;;-0.80;99.90;;;;;;5039388;28;20231;-85
2021/03/09 04:04:44;;;;;;;7.03;4.32;;;-0.80;99.90;;;;;;5038835;28;20204;-85
2021/03/09 04:07:11;;;;;;;7.63;4.95;;;-0.80;99.90;;;;;;5039601;28;20218;-85
2021/03/09 04:09:37;;;;;;;10.95;5.30;;;-0.90;99.90;;;;;;5038272;28;20234;-85
2021/03/09 04:12:07;;;;;;;8.02;5.45;;;0.00;99.90;;;;;;5038415;28;20658;-84
2021/03/09 04:14:34;;;;;;;10.23;6.72;;;-0.90;99.90;;;;;;5038508;28;20227;-85
2021/03/09 04:17:03;;;;;;;8.98;5.57;;;-1.00;99.90;;;;;;5038829;28;20227;-85
2021/03/09 04:19:30;;;;;;;7.05;4.80;;;-1.00;99.90;;;;;;5038611;28;20212;-85
2021/03/09 04:21:58;;;;;;;7.30;5.30;;;-1.00;99.90;;;;;;5038145;28;20714;-85
2021/03/09 04:24:25;;;;;;;8.45;5.40;;;-1.00;99.90;;;;;;5038367;28;20243;-85
2021/03/09 04:26:52;;;;;;;11.32;5.53;;;-1.10;99.90;;;;;;5038222;28;20261;-86
2021/03/09 04:29:18;;;;;;;6.28;4.63;;;-1.20;99.90;;;;;;5038280;28;20234;-86
2021/03/09 04:31:46;;;;;;;6.47;4.80;;;-0.90;99.90;;;;;;5038305;28;20488;-85
2021/03/09 04:34:13;;;;;;;11.55;5.45;;;-0.40;99.90;;;;;;5037586;28;20857;-86
2021/03/09 04:36:41;;;;;;;9.63;6.00;;;-1.10;99.90;;;;;;5038088;28;20234;-85
2021/03/09 04:39:08;;;;;;;10.75;6.15;;;-1.10;99.90;;;;;;5038555;28;20204;-85
2021/03/09 04:41:34;;;;;;;9.18;5.82;;;-1.00;99.90;;;;;;5038370;28;20255;-85
2021/03/09 04:44:01;;;;;;;7.50;4.82;;;-1.00;99.90;;;;;;5038345;28;20204;-85
2021/03/09 04:46:28;;;;;;;6.88;4.50;;;-1.00;99.90;;;;;;5038546;28;20204;-85
2021/03/09 04:48:55;;;;;;;11.32;4.90;;;-1.00;99.90;;;;;;5040595;28;20235;-85
2021/03/09 04:51:22;;;;;;;17.92;6.07;;;-1.10;99.90;;;;;;5054581;28;20212;-84
2021/03/09 04:53:49;;;;;;;6.05;5.40;;;-1.20;99.90;;;;;;5058754;28;20211;-83
2021/03/09 04:56:15;;;;;;;7.50;5.72;;;-1.10;99.90;;;;;;5059154;28;20209;-84
2021/03/09 04:58:41;;;;;;;9.13;5.45;;;-1.00;99.90;;;;;;5052847;28;20200;-84
2021/03/09 05:01:07;;;;;;;5.82;4.53;;;-1.00;99.90;;;;;;5039159;28;20216;-84
2021/03/09 05:03:34;;;;;;;8.20;5.00;;;-1.00;99.90;;;;;;5038703;28;20682;-86
2021/03/09 05:06:01;;;;;;;9.68;5.00;;;-1.10;99.90;;;;;;5039419;28;20254;-85
2021/03/09 05:08:28;;;;;;;8.23;5.72;;;-1.10;99.90;;;;;;5038397;28;20203;-86
2021/03/09 05:10:55;;;;;;;8.70;5.40;;;-1.30;99.90;;;;;;5037366;28;20456;-85
2021/03/09 05:13:21;;;;;;;7.53;5.65;;;-1.10;99.90;;;;;;5037802;28;20447;-85
2021/03/09 05:15:48;;;;;;;9.40;5.65;;;-1.20;99.90;;;;;;5037791;28;20208;-85
2021/03/09 05:18:15;;;;;;;7.63;5.30;;;-1.10;99.90;;;;;;5037480;28;20231;-85
2021/03/09 05:20:41;;;;;;;7.50;4.85;;;-1.30;99.90;;;;;;5036968;28;20204;-85
2021/03/09 05:23:09;;;;;;;10.73;5.90;;;-0.90;99.90;;;;;;5038425;28;20195;-85
2021/03/09 05:25:35;;;;;;;8.98;5.53;;;-1.10;99.90;;;;;;5038425;28;20204;-85
2021/03/09 05:28:02;;;;;;;10.13;6.07;;;-1.10;99.90;;;;;;5037830;28;20199;-85
2021/03/09 05:30:28;;;;;;;12.60;6.88;;;-1.10;99.90;;;;;;5037476;28;20569;-85
2021/03/09 05:32:54;;;;;;;10.68;5.18;;;-1.20;99.90;;;;;;5040054;28;20228;-85
2021/03/09 05:35:20;;;;;;;6.70;6.00;;;-1.10;99.90;;;;;;5037914;28;20212;-85
2021/03/09 05:37:47;;;;;;;9.23;5.75;;;-1.10;99.90;;;;;;5038061;28;20207;-84
2021/03/09 05:40:16;;;;;;;11.75;5.50;;;-1.00;99.90;;;;;;5038297;28;20682;-86
2021/03/09 05:42:46;;;;;;;8.48;5.20;;;-1.00;99.90;;;;;;5039377;28;20226;-85
2021/03/09 05:45:12;;;;;;;9.50;5.40;;;-1.00;99.90;;;;;;5052127;28;20190;-85
2021/03/09 05:47:39;;;;;;;10.63;6.35;;;-1.00;99.90;;;;;;5053641;28;20195;-85
2021/03/09 05:50:07;;;;;;;11.25;6.32;;;-1.10;99.90;;;;;;5053396;28;20223;-85
2021/03/09 05:52:35;;;;;;;11.52;5.80;;;-1.10;99.90;;;;;;5054996;28;20279;-85
2021/03/09 05:55:01;;;;;;;10.88;4.80;;;-1.00;99.90;;;;;;5054109;28;20211;-84
2021/03/09 05:57:30;;;;;;;6.90;5.28;;;-1.00;99.90;;;;;;5053576;28;20211;-85
2021/03/09 05:59:56;;;;;;;8.05;4.75;;;-1.00;99.90;;;;;;5052947;28;20203;-85
2021/03/09 06:02:22;;;;;;;10.20;5.18;;;-1.00;99.90;;;;;;5052567;28;20319;-84
2021/03/09 06:04:49;;;;;;;8.70;5.80;;;-0.90;99.90;;;;;;5048622;28;20208;-85
2021/03/09 06:07:17;;;;;;;10.57;6.03;;;-0.90;99.90;;;;;;5042388;28;20258;-86
2021/03/09 06:09:43;;;;;;;10.25;5.00;;;-1.00;99.90;;;;;;5047385;28;20204;-85
2021/03/09 06:12:12;;;;;;;8.50;6.18;;;-1.00;99.90;;;;;;5048585;28;20338;-85
2021/03/09 06:15:00;;;;;;;9.80;6.63;;;-0.30;99.90;;;;;;5047304;28;20203;-85
2021/03/09 06:17:27;;;;;;;13.63;6.40;;;-1.00;99.90;;;;;;5049884;28;20623;-85
2021/03/09 06:19:54;;;;;;;11.43;5.95;;;-0.80;99.90;;;;;;5051103;28;20204;-84
2021/03/09 06:22:34;;;;;;;9.65;8.05;;;-0.90;99.90;;;;;;5067173;22;20227;-80
2021/03/09 06:25:05;;;;;;;14.95;6.80;;;-0.70;99.90;;;;;;5038507;28;20191;-80
2021/03/09 06:27:32;;;;;;;9.50;5.55;;;-0.70;99.90;;;;;;5037641;28;20283;-79
2021/03/09 06:30:00;;;;;;;9.80;6.47;;;-0.70;99.90;;;;;;5036921;28;20291;-79
2021/03/09 06:32:37;;;;;;;8.40;5.35;;;-0.60;99.90;;;;;;5037176;28;20291;-79
2021/03/09 06:35:04;;;;;;;13.55;6.35;;;-0.70;99.90;;;;;;5037493;28;20184;-79
2021/03/09 06:37:31;;;;;;;10.60;5.82;;;-0.60;99.90;;;;;;5038146;28;20667;-79
2021/03/09 06:39:58;;;;;;;10.05;6.20;;;-0.60;99.90;;;;;;5042957;28;20195;-80
2021/03/09 06:42:27;;;;;;;17.75;7.85;;;-0.60;99.90;;;;;;5042445;28;20232;-78
2021/03/09 06:44:56;;;;;;;15.63;5.88;;;-0.60;99.90;;;;;;5042396;28;20261;-78
2021/03/09 06:47:37;;;;;;;11.98;6.55;;;-0.50;99.90;;;;;;5044590;28;20682;-78
2021/03/09 06:50:06;;;;;;;9.43;6.20;;;-0.40;99.90;;;;;;5044852;28;20239;-80
2021/03/09 06:52:32;;;;;;;13.57;6.28;;;-0.50;99.90;;;;;;5044627;28;20220;-80
2021/03/09 06:54:58;;;;;;;10.45;5.72;;;-0.40;99.90;;;;;;5045250;28;20601;-79
2021/03/09 06:57:24;;;;;;;12.93;6.68;;;-0.40;99.90;;;;;;5044923;28;20216;-79
2021/03/09 06:59:53;;;;;;;9.52;5.70;;;-0.40;99.90;;;;;;5045150;28;20191;-79
2021/03/09 07:02:22;;;;;;;11.65;5.80;;;-0.30;99.90;;;;;;5052230;28;20208;-80
2021/03/09 07:04:50;;;;;;;13.05;6.68;;;-0.30;99.90;;;;;;5055914;28;20208;-80
2021/03/09 07:07:21;;;;;;;12.55;10.52;;;0.10;99.90;;;;;;5056315;28;20301;-80
2021/03/09 07:09:56;;;;;;;11.93;5.72;;;-0.10;99.90;;;;;;5053903;28;20195;-80
2021/03/09 07:12:22;;;;;;;6.35;5.35;;;-0.10;99.90;;;;;;5053416;28;20261;-79
2021/03/09 07:14:50;;;;;;;11.38;6.05;;;-0.10;99.90;;;;;;5047119;28;20575;-79
2021/03/09 07:17:20;;;;;;;10.13;6.20;;;-0.10;99.90;;;;;;5039645;28;20262;-79
2021/03/09 07:19:46;;;;;;;13.60;7.25;;;0.00;99.90;;;;;;5040094;28;20579;-79
2021/03/09 07:22:15;;;;;;;13.88;7.75;;;0.10;99.90;;;;;;5038950;28;20235;-78
2021/03/09 07:24:48;;;;;;;12.35;6.10;;;0.00;99.90;;;;;;5038326;28;20208;-80
2021/03/09 07:27:18;;;;;;;10.00;7.10;;;0.10;99.90;;;;;;5037314;28;20262;-79
2021/03/09 07:29:54;;;;;;;12.45;7.80;;;0.40;99.90;;;;;;5039287;28;20602;-80
2021/03/09 07:32:23;;;;;;;11.13;5.93;;;0.30;99.90;;;;;;5039655;28;20590;-79
2021/03/09 07:34:50;;;;;;;10.32;6.80;;;0.50;99.90;;;;;;5039214;28;20258;-80
2021/03/09 07:37:17;;;;;;;9.27;6.53;;;0.60;99.90;;;;;;5038080;28;20231;-80
2021/03/09 07:39:44;;;;;;;14.80;7.65;;;0.40;99.90;;;;;;5039428;28;20214;-81
2021/03/09 07:42:11;;;;;;;14.13;7.45;;;0.50;99.90;;;;;;5037610;28;20231;-79
2021/03/09 07:44:39;;;;;;;18.00;9.60;;;0.40;99.90;;;;;;5037011;28;20203;-80
2021/03/09 07:47:07;;;;;;;13.00;5.65;;;0.60;99.90;;;;;;5036993;28;20303;-79
2021/03/09 07:49:34;;;;;;;12.05;6.53;;;0.70;99.90;;;;;;5038767;28;20338;-80
2021/03/09 07:52:18;;;;;;;11.20;6.88;;;0.60;99.90;;;;;;5036910;28;20238;-78
2021/03/09 07:55:16;;;;;;;12.25;6.65;;;0.70;99.90;;;;;;5039213;28;20195;-81
2021/03/09 07:57:43;;;;;;;10.27;7.03;;;0.70;99.90;;;;;;5038476;28;20204;-79
2021/03/09 08:00:12;;;;;;;13.23;6.97;;;0.60;99.90;;;;;;5042326;28;20230;-79
2021/03/09 08:02:43;;;;;;;9.95;6.68;;;0.80;99.90;;;;;;5054095;28;20227;-79
2021/03/09 08:05:13;;;;;;;14.80;7.28;;;1.10;99.90;;;;;;5047898;28;20200;-79
2021/03/09 08:07:53;;;;;;;15.38;7.03;;;1.10;99.90;;;;;;5042343;28;20242;-80
2021/03/09 08:10:45;;;;;;;15.90;7.47;;;0.90;99.90;;;;;;5047107;28;20238;-82
2021/03/09 08:13:22;;;;;;;13.30;7.45;;;1.10;99.90;;;;;;5052892;28;20224;-80
2021/03/09 08:15:48;;;;;;;8.10;7.30;;;1.30;99.90;;;;;;5048075;28;20196;-78
2021/03/09 08:18:46;;;;;;;9.45;6.50;;;1.70;99.90;;;;;;5050123;28;20215;-78
2021/03/09 08:21:22;;;;;;;15.32;7.80;;;1.80;99.90;;;;;;5051537;28;20230;-81
2021/03/09 08:23:56;;;;;;;10.25;6.68;;;1.70;99.90;;;;;;5051417;28;20196;-79
2021/03/09 08:26:45;;;;;;;8.13;6.85;;;1.80;99.90;;;;;;5046892;28;20211;-80
2021/03/09 08:29:32;;;;;;;14.05;6.97;;;1.90;99.90;;;;;;5046254;28;20200;-80
2021/03/09 08:32:28;;;;;;;16.80;8.98;;;1.80;99.90;;;;;;5038338;28;20707;-80
2021/03/09 08:35:27;;;;;;;11.85;6.03;;;1.80;99.90;;;;;;5039188;28;20211;-79
2021/03/09 08:37:54;;;;;;;10.43;7.20;;;2.00;99.90;;;;;;5041214;28;20582;-79
2021/03/09 08:40:23;;;;;;;8.88;6.35;;;2.00;99.90;;;;;;5046639;28;20551;-79
2021/03/09 08:43:14;;;;;;;13.95;6.63;;;2.20;99.90;;;;;;5058265;28;20697;-80
2021/03/09 08:45:42;;;;;;;14.23;7.20;;;2.20;99.90;;;;;;5057341;28;20204;-79
2021/03/09 08:48:09;;;;;;;10.50;6.80;;;2.40;99.90;;;;;;5046952;28;20207;-80
2021/03/09 08:50:40;;;;;;;14.57;7.07;;;2.40;99.90;;;;;;5046521;28;20231;-79
2021/03/09 08:53:06;;;;;;;12.43;7.60;;;2.20;99.90;;;;;;5044730;28;20242;-80
2021/03/09 08:55:33;;;;;;;8.77;6.45;;;2.30;99.90;;;;;;5045269;28;20208;-79
2021/03/09 08:58:06;;;;;;;17.65;9.25;;;2.50;99.90;;;;;;5043885;28;20199;-79
2021/03/09 09:00:32;;;;;;;16.83;9.30;;;2.80;99.90;;;;;;5044043;28;20239;-79
2021/03/09 09:02:58;;;;;;;14.07;7.72;;;2.70;99.90;;;;;;5042401;28;20219;-79
2021/03/09 09:05:29;;;;;;;9.65;6.47;;;2.80;99.90;;;;;;5040690;28;20616;-80
2021/03/09 09:07:55;;;;;;;9.10;6.55;;;2.90;99.90;;;;;;5040451;28;20295;-80
2021/03/09 09:10:23;;;;;;;11.30;7.07;;;2.90;99.90;;;;;;5040790;28;20234;-79
2021/03/09 09:12:52;;;;;;;13.48;7.57;;;3.00;99.90;;;;;;5041878;28;20315;-80
2021/03/09 09:15:21;;;;;;;10.57;5.78;;;2.90;99.90;;;;;;5044373;28;20231;-80
2021/03/09 09:17:51;;;;;;;13.23;7.47;;;3.00;99.90;;;;;;5051520;28;20223;-80
2021/03/09 09:20:24;;;;;;;7.38;5.80;;;3.10;99.90;;;;;;5054185;28;20200;-80
2021/03/09 09:22:52;;;;;;;8.30;5.47;;;3.10;99.90;;;;;;5043183;28;20236;-80
2021/03/09 09:25:19;;;;;;;10.85;5.70;;;3.20;99.90;;;;;;5045152;28;20200;-79
2021/03/09 09:27:48;;;;;;;8.65;6.07;;;3.20;99.90;;;;;;5051846;28;20207;-79
2021/03/09 09:30:19;;;;;;;5.45;4.95;;;3.60;99.90;;;;;;5050917;28;20223;-80
2021/03/09 09:32:51;;;;;;;10.68;6.88;;;3.40;99.90;;;;;;5047029;28;20239;-79
2021/03/09 09:35:18;;;;;;;8.30;6.22;;;3.50;99.90;;;;;;5049971;28;20207;-78
2021/03/09 09:37:47;;;;;;;12.23;6.85;;;3.60;99.90;;;;;;5052244;28;20627;-78
2021/03/09 09:40:15;;;;;;;8.45;5.40;;;3.70;99.90;;;;;;5044913;28;20203;-79
2021/03/09 09:42:41;;;;;;;15.95;6.97;;;3.80;99.90;;;;;;5045208;28;20250;-78
2021/03/09 09:45:09;;;;;;;11.00;6.28;;;3.70;99.90;;;;;;5046689;28;20296;-77
2021/03/09 09:47:37;;;;;;;16.95;7.20;;;4.30;99.90;;;;;;5046968;28;20211;-77
2021/03/09 09:50:08;;;;;;;17.10;6.38;;;4.10;99.90;;;;;;5046836;28;20214;-78
2021/03/09 09:52:59;;;;;;;5.85;5.25;;;4.10;99.90;;;;;;5047494;28;20611;-76
2021/03/09 09:55:30;;;;;;;7.78;5.88;;;6.60;99.90;;;;;;4991002;28;20217;-78
2021/03/09 09:58:11;;;;;;;14.73;6.93;;;4.30;99.90;;;;;;5050421;28;20305;-78
2021/03/09 10:00:40;;;;;;;11.18;6.00;;;;;;;;;;5050302;28;20271;-78
2021/03/09 10:03:27;;;;;;;10.50;5.40;;;4.50;99.90;;;;;;5063377;28;20261;-79
2021/03/09 10:05:56;;;;;;;9.68;4.97;;;;;;;;;;5039894;28;20215;-80
2021/03/09 10:08:35;;;;;;;8.25;5.00;;;4.40;99.90;;;;;;5041594;28;20250;-79
2021/03/09 10:11:03;;;;;;;6.13;4.10;;;4.60;99.90;;;;;;5041761;28;20212;-79
2021/03/09 10:13:30;;;;;;;5.72;4.55;;;;;;;;;;5044491;28;20200;-79
2021/03/09 10:15:56;;;;;;;5.13;4.35;;;4.30;99.90;;;;;;5056708;28;20204;-80
2021/03/09 10:18:27;;;;;;;8.25;5.20;;;7.30;99.90;;;;;;5055667;28;20204;-78
2021/03/09 10:21:01;;;;;;;15.02;7.78;;;4.70;98.70;;;;;;5054595;28;20230;-79
2021/03/09 10:23:30;;;;;;;6.47;4.78;;;4.60;98.90;;;;;;5053789;28;20195;-79
2021/03/09 10:26:04;;;;;;;12.35;5.07;;;4.70;99.90;;;;;;5050385;28;20200;-79
2021/03/09 10:28:32;;;;;;;9.30;5.18;;;4.90;97.80;;;;;;5056275;28;20187;-80
2021/03/09 10:30:58;;;;;;;6.10;4.32;;;;;;;;;;5056219;28;20234;-77
2021/03/09 10:33:25;;;;;;;9.32;4.88;;;4.90;97.80;;;;;;5056504;28;20539;-79
2021/03/09 10:36:06;;;;;;;13.18;6.55;;;5.00;99.90;;;;;;5055614;28;20204;-79
2021/03/09 10:38:33;;;;;;;5.65;4.45;;;5.10;98.60;;;;;;5054110;28;20203;-79
2021/03/09 10:41:00;;;;;;;8.05;4.60;;;4.80;99.90;;;;;;5053517;28;20187;-79
2021/03/09 10:43:39;;;;;;;4.43;4.03;;;5.10;98.60;;;;;;5045792;28;20208;-80
2021/03/09 10:46:05;;;;;;;6.78;4.68;;;5.20;97.30;;;;;;5045353;28;20211;-80
2021/03/09 10:48:32;;;;;;;9.40;4.22;;;5.40;97.60;;;;;;5050840;28;20200;-79
2021/03/09 10:50:58;;;;;;;7.25;4.55;;;5.30;99.90;;;;;;5053985;28;20203;-79
2021/03/09 10:53:25;;;;;;;6.43;3.80;;;5.50;97.80;;;;;;5052618;28;20206;-79
2021/03/09 10:55:51;;;;;;;5.05;3.78;;;5.60;97.60;;;;;;5053096;28;20203;-78
2021/03/09 10:58:18;;;;;;;5.40;4.13;;;5.60;94.80;;;;;;5053724;28;20187;-77
2021/03/09 11:00:44;;;;;;;2.95;2.70;;;5.60;93.50;;;;;;5053757;28;20226;-77
2021/03/09 11:03:10;;;;;;;2.75;2.30;;;5.60;93.00;;;;;;5053360;28;20227;-78
2021/03/09 11:05:36;;;;;;;4.10;2.85;;;5.70;89.30;;;;;;5051599;28;20290;-79
2021/03/09 11:08:03;;;;;;;4.65;2.22;;;5.80;87.60;;;;;;5041502;28;20210;-79
2021/03/09 11:10:30;;;;;;;4.22;2.60;;;5.80;87.70;;;;;;5047295;28;20282;-78
2021/03/09 11:12:56;;;;;;;5.95;4.20;;;5.80;90.70;;;;;;5048919;28;20234;-82
2021/03/09 11:15:22;;;;;;;4.78;2.35;;;5.80;88.20;;;;;;5048157;28;20206;-80
2021/03/09 11:17:48;;;;;;;3.58;2.95;;;6.00;91.50;;;;;;5042050;28;20199;-79
2021/03/09 11:20:16;;;;;;;4.22;3.15;;;6.10;90.10;;;;;;5039576;28;20261;-79
2021/03/09 11:22:43;;;;;;;2.63;2.40;;;6.10;90.60;;;;;;5039991;28;20242;-80
2021/03/09 11:25:10;;;;;;;3.20;2.90;;;5.90;89.30;;;;;;5046616;28;20208;-78
2021/03/09 11:27:40;;;;;;;6.88;4.70;;;5.30;98.80;;;;;;5047717;28;20226;-80
2021/03/09 11:30:11;;;;;;;5.60;2.85;;;5.70;90.20;;;;;;5043600;28;20216;-79
2021/03/09 11:32:38;;;;;;;2.88;2.20;;;5.70;81.90;;;;;;5040420;28;20228;-81
2021/03/09 11:35:05;;;;;;;4.80;3.17;;;5.50;84.60;;;;;;5039687;28;20208;-80
2021/03/09 11:37:31;;;;;;;3.58;3.00;;;5.50;91.60;;;;;;5039162;28;20337;-80
2021/03/09 11:39:57;;;;;;;5.05;4.13;;;6.40;98.80;;;;;;5038976;28;20203;-80
2021/03/09 11:42:23;;;;;;;2.47;2.25;;;6.30;90.50;;;;;;5037867;28;20391;-79
2021/03/09 11:44:50;;;;;;;3.97;2.65;;;6.50;88.10;;;;;;5038485;28;20210;-79
2021/03/09 11:47:16;;;;;;;5.88;3.40;;;6.50;79.60;;;;;;5037813;28;20200;-79
2021/03/09 11:49:43;;;;;;;6.13;4.15;;;6.50;79.90;;;;;;5037647;28;20230;-79
2021/03/09 11:52:09;;;;;;;6.45;3.35;;;6.40;82.70;;;;;;5038785;28;20322;-81
2021/03/09 11:54:36;;;;;;;3.42;3.13;;;6.70;87.30;;;;;;5040006;28;20684;-80
2021/03/09 11:57:02;;;;;;;4.03;3.25;;;6.90;88.30;;;;;;5038494;28;20203;-80
2021/03/09 11:59:28;;;;;;;4.10;3.70;;;7.10;85.70;;;;;;5038740;28;20234;-79
2021/03/09 12:01:55;;;;;;;7.50;4.00;;;7.20;81.20;;;;;;5037464;28;20224;-80
2021/03/09 12:04:21;;;;;;;3.78;3.45;;;7.20;84.80;;;;;;5036884;28;20204;-80
2021/03/09 12:06:47;;;;;;;3.50;2.92;;;7.10;85.60;;;;;;5037011;28;20215;-80
2021/03/09 12:09:14;;;;;;;4.28;3.25;;;7.10;82.10;;;;;;5036924;28;20224;-79
2021/03/09 12:11:40;;;;;;;6.07;3.58;;;6.80;80.20;;;;;;5041095;28;20260;-80
2021/03/09 12:14:07;;;;;;;3.85;3.45;;;6.60;82.20;;;;;;5041167;28;20215;-80
2021/03/09 12:16:33;;;;;;;5.63;3.63;;;6.50;83.20;;;;;;5040306;28;20192;-80
2021/03/09 12:19:00;;;;;;;9.55;3.47;;;6.50;84.40;;;;;;5041070;28;20204;-79
2021/03/09 12:21:26;;;;;;;3.55;2.72;;;;;;;;;;5056319;22;20282;-84
2021/03/09 12:23:53;;;;;;;8.35;4.18;;;6.40;82.10;;;;;;5043024;28;20581;-84
2021/03/09 12:26:19;;;;;;;3.88;3.55;;;6.50;83.60;;;;;;5042514;28;20207;-84
2021/03/09 12:28:45;;;;;;;9.38;5.35;;;6.20;91.00;;;;;;5043062;28;20574;-85
2021/03/09 12:31:11;;;;;;;5.60;3.65;;;6.20;76.60;;;;;;5050586;28;20721;-85
2021/03/09 12:33:38;;;;;;;5.40;3.88;;;5.80;77.00;;;;;;5051902;28;20219;-86
2021/03/09 12:36:06;;;;;;;3.72;3.42;;;5.90;80.80;;;;;;5051239;28;20690;-84
2021/03/09 12:38:32;;;;;;;3.35;3.05;;;6.00;79.20;;;;;;5047929;28;20550;-84
2021/03/09 12:40:58;;;;;;;7.82;3.95;;;6.10;79.60;;;;;;5043129;28;20200;-84
2021/03/09 12:43:25;;;;;;;7.28;4.50;;;6.90;94.40;;;;;;5041360;28;20227;-84
2021/03/09 12:45:51;;;;;;;4.85;3.60;;;6.50;82.60;;;;;;5040591;28;20200;-84
2021/03/09 12:48:17;;;;;;;3.50;3.20;;;6.60;75.30;;;;;;5041966;28;20214;-85
2021/03/09 12:50:44;;;;;;;4.28;3.65;;;6.60;73.90;;;;;;5041551;28;20231;-84
2021/03/09 12:53:11;;;;;;;3.53;3.10;;;6.50;77.50;;;;;;5042103;28;20220;-85
2021/03/09 12:55:37;;;;;;;6.05;4.35;;;6.60;73.80;;;;;;5042340;28;20227;-85
2021/03/09 12:58:03;;;;;;;7.47;4.45;;;6.90;75.20;;;;;;5041201;28;20663;-86
2021/03/09 13:00:30;;;;;;;11.30;3.33;;;7.10;78.90;;;;;;5042148;28;20230;-85